Time;durP1;ratioP1;P1;durP2;ratioP2;P2;SDS_P1;SDS_P2;PMS_P1;PMS_P2;Temp;Humidity;BMP_temperature;BMP_pressure;BME280_temperature;BME280_humidity;BME280_pressure;Samples;Min_cycle;Max_cycle;Signal;HPM_P1;HPM_P2
2021/12/04 00:04:31;;;;;;;8.65;7.72;;;;;;;;;;10271635;28;20374;-61
2021/12/04 00:09:30;;;;;;;8.02;7.18;;;;;;;;;;10272529;28;20049;-61
2021/12/04 00:14:30;;;;;;;9.13;8.10;;;;;;;;;;10272606;28;20069;-62
2021/12/04 00:19:29;;;;;;;7.75;7.05;;;;;;;;;;10274326;28;20068;-63
2021/12/04 00:24:29;;;;;;;11.25;8.68;;;;;;;;;;10274391;28;20049;-63
2021/12/04 00:29:28;;;;;;;10.20;9.18;;;;;;;;;;10274833;28;20548;-62
2021/12/04 00:34:29;;;;;;;10.18;9.00;;;;;;;;;;10274478;28;20383;-62
2021/12/04 00:49:59;;;;;;;;;;;;;;;;;;10274435;28;20073;-63
2021/12/04 00:54:58;;;;;;;12.68;9.63;;;;;;;;;;10274133;28;19975;-62
2021/12/04 00:59:57;;;;;;;14.20;9.85;;;;;;;;;;10272899;28;20060;-62
2021/12/04 01:04:55;;;;;;;14.07;10.27;;;;;;;;;;10273117;28;20053;-63
2021/12/04 01:09:54;;;;;;;14.40;11.60;;;;;;;;;;10273248;28;20076;-63
2021/12/04 01:14:53;;;;;;;13.18;11.77;;;;;;;;;;10273899;28;20045;-62
2021/12/04 01:19:52;;;;;;;13.77;12.27;;;;;;;;;;10273430;28;20091;-63
2021/12/04 01:24:50;;;;;;;12.85;11.65;;;;;;;;;;10272777;28;20487;-62
2021/12/04 01:29:49;;;;;;;13.88;11.95;;;;;;;;;;10272284;28;20075;-63
2021/12/04 01:34:48;;;;;;;11.77;10.27;;;;;;;;;;10272437;28;20072;-63
2021/12/04 01:39:47;;;;;;;14.70;12.32;;;;;;;;;;10271662;28;20075;-62
2021/12/04 01:44:47;;;;;;;13.00;11.07;;;;;;;;;;10273082;28;20065;-62
2021/12/04 01:49:45;;;;;;;13.05;11.43;;;;;;;;;;10273293;28;20067;-63
2021/12/04 01:54:45;;;;;;;15.20;11.73;;;;;;;;;;10271659;28;20089;-63
2021/12/04 01:59:45;;;;;;;14.52;12.23;;;;;;;;;;10272065;28;20471;-62
2021/12/04 02:04:43;;;;;;;13.60;12.20;;;;;;;;;;10270196;28;20049;-63
2021/12/04 02:09:41;;;;;;;13.15;11.77;;;;;;;;;;10272118;28;20414;-63
2021/12/04 02:14:42;;;;;;;12.65;11.27;;;;;;;;;;10272368;28;20080;-63
2021/12/04 02:19:40;;;;;;;12.25;10.93;;;;;;;;;;10279373;28;20088;-63
2021/12/04 02:24:40;;;;;;;12.52;11.23;;;;;;;;;;10279815;28;20095;-63
2021/12/04 02:29:45;;;;;;;11.85;10.75;;;;;;;;;;10280811;28;20529;-63
2021/12/04 02:34:44;;;;;;;;;;;;;;;;;;10281236;28;20442;-63
2021/12/04 02:39:45;;;;;;;11.68;9.05;;;;;;;;;;10280848;28;19963;-63
2021/12/04 02:44:45;;;;;;;15.70;13.05;;;;;;;;;;10279152;28;20080;-63
2021/12/04 02:49:44;;;;;;;12.40;11.10;;;;;;;;;;10280318;28;20446;-63
2021/12/04 02:54:43;;;;;;;12.27;11.07;;;;;;;;;;10279634;28;20080;-63
2021/12/04 02:59:42;;;;;;;13.02;11.65;;;;;;;;;;10279296;28;20080;-63
2021/12/04 03:04:41;;;;;;;10.82;9.73;;;;;;;;;;10279537;28;20049;-63
2021/12/04 03:09:40;;;;;;;11.35;10.10;;;;;;;;;;10278451;28;20079;-63
2021/12/04 03:14:40;;;;;;;10.65;9.23;;;;;;;;;;10277579;28;20074;-63
2021/12/04 03:19:39;;;;;;;11.75;10.55;;;;;;;;;;10278678;28;20084;-63
2021/12/04 03:24:40;;;;;;;11.05;9.30;;;;;;;;;;10278813;28;20045;-63
2021/12/04 03:29:42;;;;;;;10.10;9.10;;;;;;;;;;10277280;28;20084;-63
2021/12/04 03:45:16;;;;;;;11.85;10.35;;;;;;;;;;10242435;28;20083;-63
2021/12/04 03:50:14;;;;;;;10.43;9.23;;;;;;;;;;10277514;28;20080;-63
2021/12/04 03:55:13;;;;;;;10.98;8.70;;;;;;;;;;10277419;28;20112;-62
2021/12/04 04:00:12;;;;;;;11.60;9.40;;;;;;;;;;10276341;28;20095;-63
2021/12/04 04:05:12;;;;;;;10.18;9.07;;;;;;;;;;10277739;28;20184;-63
2021/12/04 04:10:10;;;;;;;13.38;10.50;;;;;;;;;;10277150;28;20049;-63
2021/12/04 04:15:08;;;;;;;9.43;8.02;;;;;;;;;;10275749;28;20076;-62
2021/12/04 04:20:08;;;;;;;9.95;8.95;;;;;;;;;;10276036;28;20103;-63
2021/12/04 04:25:08;;;;;;;10.65;9.00;;;;;;;;;;10275651;28;20080;-63
2021/12/04 04:30:10;;;;;;;11.05;8.98;;;;;;;;;;10274756;28;20517;-63
2021/12/04 04:35:11;;;;;;;17.38;12.40;;;;;;;;;;10275633;28;20484;-63
2021/12/04 05:01:41;;;;;;;10.90;9.18;;;;;;;;;;10275027;28;20080;-63
2021/12/04 05:12:01;;;;;;;11.50;8.95;;;;;;;;;;10271694;28;20072;-62
2021/12/04 05:17:04;;;;;;;13.00;11.60;;;;;;;;;;10272881;28;20442;-63
2021/12/04 05:22:03;;;;;;;15.73;12.20;;;;;;;;;;10274016;28;20072;-63
2021/12/04 05:27:03;;;;;;;24.05;13.50;;;;;;;;;;10257855;28;20474;-63
2021/12/04 05:32:02;;;;;;;35.92;17.80;;;;;;;;;;10235478;28;20073;-63
2021/12/04 05:37:00;;;;;;;11.98;10.70;;;;;;;;;;10272930;28;20072;-63
2021/12/04 05:41:59;;;;;;;14.43;11.02;;;;;;;;;;10271581;28;20463;-62
2021/12/04 05:47:02;;;;;;;11.55;8.77;;;;;;;;;;10273107;28;20457;-63
2021/12/04 05:52:11;;;;;;;34.03;16.00;;;;;;;;;;10273335;28;20067;-63
2021/12/04 05:57:10;;;;;;;31.30;17.77;;;;;;;;;;10271721;28;20068;-64
2021/12/04 06:02:09;;;;;;;28.80;16.42;;;;;;;;;;10268338;28;20065;-63
2021/12/04 06:07:08;;;;;;;33.05;17.58;;;;;;;;;;10257703;28;20067;-63
2021/12/04 06:12:08;;;;;;;34.88;21.70;;;;;;;;;;10272447;28;20045;-63
2021/12/04 06:17:06;;;;;;;88.43;61.40;;;;;;;;;;10252683;28;20455;-63
2021/12/04 06:27:22;;;;;;;25.52;16.63;;;;;;;;;;10250713;28;20080;-62
2021/12/04 06:32:20;;;;;;;16.30;12.02;;;;;;;;;;10250432;28;20095;-63
2021/12/04 06:37:20;;;;;;;12.20;10.18;;;;;;;;;;10242749;28;20373;-62
2021/12/04 06:42:18;;;;;;;21.92;17.02;;;;;;;;;;10250933;28;20075;-62
2021/12/04 06:47:17;;;;;;;12.40;10.73;;;;;;;;;;10240074;28;20076;-62
2021/12/04 06:52:18;;;;;;;18.27;14.25;;;;;;;;;;10245111;28;20080;-62
2021/12/04 06:57:17;;;;;;;12.00;10.13;;;;;;;;;;10256277;28;20124;-63
2021/12/04 07:02:16;;;;;;;11.18;9.65;;;;;;;;;;10238294;28;20450;-63
2021/12/04 07:07:14;;;;;;;17.27;13.00;;;;;;;;;;10273685;28;20091;-63
2021/12/04 07:12:13;;;;;;;10.98;8.95;;;;;;;;;;10246940;28;20096;-64
2021/12/04 07:17:13;;;;;;;26.95;21.67;;;;;;;;;;10251621;28;20084;-65
2021/12/04 07:22:11;;;;;;;17.55;13.75;;;;;;;;;;10256333;28;20099;-64
2021/12/04 07:27:09;;;;;;;20.95;14.73;;;;;;;;;;10259320;28;20131;-64
2021/12/04 07:32:08;;;;;;;17.83;12.90;;;;;;;;;;10262690;28;20078;-64
2021/12/04 07:37:08;;;;;;;20.25;14.82;;;;;;;;;;10271210;28;20064;-65
2021/12/04 07:42:06;;;;;;;15.82;12.43;;;;;;;;;;10269917;28;20072;-63
2021/12/04 07:47:05;;;;;;;16.80;12.00;;;;;;;;;;10267252;28;20069;-64
2021/12/04 07:52:04;;;;;;;20.05;14.25;;;;;;;;;;10267918;28;20075;-64
2021/12/04 07:57:04;;;;;;;19.65;14.57;;;;;;;;;;10271566;28;20085;-65
2021/12/04 08:02:02;;;;;;;20.40;14.75;;;;;;;;;;10273225;28;20397;-63
2021/12/04 08:07:01;;;;;;;19.13;13.95;;;;;;;;;;10275524;28;20130;-63
2021/12/04 08:11:59;;;;;;;17.38;12.10;;;;;;;;;;10257543;28;20072;-63
2021/12/04 08:16:59;;;;;;;23.30;17.58;;;;;;;;;;10266560;28;20049;-63
2021/12/04 08:21:57;;;;;;;16.65;12.05;;;;;;;;;;10263089;28;20081;-63
2021/12/04 08:26:56;;;;;;;18.80;15.07;;;;;;;;;;10236496;28;20073;-63
2021/12/04 08:31:54;;;;;;;13.20;11.63;;;;;;;;;;10251043;28;20065;-63
2021/12/04 08:36:54;;;;;;;20.10;15.27;;;;;;;;;;10248209;28;20083;-62
2021/12/04 08:41:52;;;;;;;21.10;16.00;;;;;;;;;;10236476;28;20080;-64
2021/12/04 08:46:51;;;;;;;15.80;12.80;;;;;;;;;;10254579;28;20037;-63
2021/12/04 08:51:50;;;;;;;18.50;14.60;;;;;;;;;;10242585;28;20088;-63
2021/12/04 08:56:50;;;;;;;15.60;13.75;;;;;;;;;;10270921;28;20088;-62
2021/12/04 09:01:48;;;;;;;14.32;11.52;;;;;;;;;;10263066;28;20080;-64
2021/12/04 09:06:47;;;;;;;15.35;12.43;;;;;;;;;;10241496;28;20080;-63
2021/12/04 09:11:49;;;;;;;26.52;17.45;;;;;;;;;;10250859;28;20068;-63
2021/12/04 09:16:51;;;;;;;20.42;15.57;;;;;;;;;;10248737;28;20069;-62
2021/12/04 09:21:50;;;;;;;33.03;21.90;;;;;;;;;;10257629;28;20083;-63
2021/12/04 09:26:55;;;;;;;31.52;26.23;;;;;;;;;;10243211;28;20626;-62
2021/12/04 09:32:11;;;;;;;;;;;;;;;;;;10247041;28;20083;-62
2021/12/04 10:04:05;;;;;;;23.30;18.17;;;;;;;;;;10248542;28;20076;-64
2021/12/04 10:19:47;;;;;;;110.53;66.35;;;;;;;;;;10193051;28;20455;-63
2021/12/04 10:25:01;;;;;;;26.38;18.92;;;;;;;;;;10242044;28;20083;-65
2021/12/04 10:35:28;;;;;;;61.22;42.08;;;;;;;;;;10244244;28;20080;-65
2021/12/04 10:40:36;;;;;;;40.75;29.27;;;;;;;;;;10248735;28;20489;-64
2021/12/04 10:45:35;;;;;;;56.35;41.03;;;;;;;;;;10254276;28;20077;-65
2021/12/04 10:50:42;;;;;;;38.72;29.77;;;;;;;;;;10252197;28;20072;-64
2021/12/04 10:55:48;;;;;;;38.63;29.55;;;;;;;;;;10260514;28;20084;-64
2021/12/04 11:00:56;;;;;;;64.50;46.70;;;;;;;;;;10250291;28;20106;-65
2021/12/04 11:22:18;;;;;;;50.67;35.05;;;;;;;;;;10247824;28;20083;-65
2021/12/04 11:27:35;;;;;;;39.20;28.10;;;;;;;;;;10246428;28;20076;-64
2021/12/04 11:38:14;;;;;;;33.55;24.77;;;;;;;;;;10253765;28;20109;-65
2021/12/04 11:43:17;;;;;;;29.48;24.08;;;;;;;;;;10244425;28;20079;-65
2021/12/04 11:48:15;;;;;;;22.50;17.13;;;;;;;;;;10266554;28;20075;-65
2021/12/04 11:53:16;;;;;;;29.65;21.50;;;;;;;;;;10248450;28;20473;-65
2021/12/04 11:58:20;;;;;;;37.55;25.30;;;;;;;;;;10257014;28;20081;-65
2021/12/04 12:03:20;;;;;;;23.05;17.55;;;;;;;;;;10251295;28;20099;-65
2021/12/04 12:08:23;;;;;;;24.70;19.50;;;;;;;;;;10250487;28;20076;-65
2021/12/04 12:13:25;;;;;;;45.90;28.75;;;;;;;;;;10246530;28;20072;-65
2021/12/04 12:18:23;;;;;;;41.35;29.60;;;;;;;;;;10264753;28;20060;-65
2021/12/04 12:23:26;;;;;;;21.63;15.43;;;;;;;;;;10253616;28;20080;-66
2021/12/04 12:33:56;;;;;;;36.83;25.75;;;;;;;;;;10249064;28;20072;-64
2021/12/04 12:38:56;;;;;;;37.45;24.55;;;;;;;;;;10254579;28;20071;-65
2021/12/04 12:44:01;;;;;;;39.58;25.35;;;;;;;;;;10248542;28;20073;-65
2021/12/04 12:49:00;;;;;;;33.75;21.85;;;;;;;;;;10250169;28;20592;-65
2021/12/04 12:53:59;;;;;;;26.33;19.23;;;;;;;;;;10247629;28;20470;-65
2021/12/04 12:59:02;;;;;;;32.05;23.60;;;;;;;;;;10256954;28;20076;-65
2021/12/04 13:14:36;;;;;;;33.70;25.25;;;;;;;;;;10255145;28;20087;-66
2021/12/04 13:19:43;;;;;;;43.03;24.55;;;;;;;;;;10250258;28;20080;-65
2021/12/04 13:24:42;;;;;;;44.40;27.67;;;;;;;;;;10255086;28;20071;-65
2021/12/04 13:29:42;;;;;;;40.42;25.83;;;;;;;;;;10253560;28;20069;-64
2021/12/04 13:34:43;;;;;;;51.75;35.63;;;;;;;;;;10245012;28;20065;-64
2021/12/04 13:39:42;;;;;;;57.67;41.83;;;;;;;;;;10244421;28;20143;-65
2021/12/04 13:44:40;;;;;;;43.50;27.13;;;;;;;;;;10239768;28;20495;-65
2021/12/04 13:49:40;;;;;;;30.15;23.13;;;;;;;;;;10240074;28;20069;-64
2021/12/04 13:54:41;;;;;;;49.03;36.80;;;;;;;;;;10247292;28;20085;-65
2021/12/04 13:59:39;;;;;;;25.15;19.15;;;;;;;;;;10244451;28;20502;-65
2021/12/04 14:04:37;;;;;;;34.30;24.27;;;;;;;;;;10250144;28;20454;-66
2021/12/04 14:09:37;;;;;;;41.33;24.70;;;;;;;;;;10264434;28;20076;-65
2021/12/04 14:14:36;;;;;;;76.75;47.33;;;;;;;;;;10266823;28;20516;-65
2021/12/04 14:19:35;;;;;;;43.22;32.40;;;;;;;;;;10252382;28;20072;-65
2021/12/04 14:24:36;;;;;;;30.98;26.10;;;;;;;;;;10255535;28;20081;-65
2021/12/04 14:29:36;;;;;;;38.67;28.60;;;;;;;;;;10251628;28;20068;-65
2021/12/04 14:34:36;;;;;;;21.02;16.83;;;;;;;;;;10251011;28;20069;-65
2021/12/04 14:39:34;;;;;;;28.02;20.17;;;;;;;;;;10249537;28;21154;-65
2021/12/04 14:44:33;;;;;;;18.85;14.68;;;;;;;;;;10264167;28;20093;-65
2021/12/04 14:49:31;;;;;;;45.15;33.05;;;;;;;;;;10254076;28;20072;-65
2021/12/04 14:54:34;;;;;;;18.55;15.50;;;;;;;;;;10256698;28;20107;-65
2021/12/04 14:59:33;;;;;;;17.13;13.93;;;;;;;;;;10271285;28;20060;-65
2021/12/04 15:04:38;;;;;;;20.27;16.92;;;;;;;;;;10253334;28;20107;-65
2021/12/04 15:09:38;;;;;;;28.02;22.35;;;;;;;;;;10250955;28;20072;-65
2021/12/04 15:14:36;;;;;;;22.02;17.30;;;;;;;;;;10249603;28;20117;-65
2021/12/04 15:19:39;;;;;;;17.48;14.93;;;;;;;;;;10251176;28;20060;-65
2021/12/04 15:24:42;;;;;;;20.90;17.35;;;;;;;;;;10249296;28;20123;-65
2021/12/04 15:29:40;;;;;;;26.38;18.85;;;;;;;;;;10252191;28;20587;-65
2021/12/04 15:34:43;;;;;;;20.20;15.48;;;;;;;;;;10248045;28;20127;-65
2021/12/04 15:39:46;;;;;;;97.75;53.70;;;;;;;;;;10258114;28;20080;-66
2021/12/04 15:44:57;;;;;;;75.18;51.50;;;;;;;;;;10257220;28;20090;-65
2021/12/04 15:55:29;;;;;;;43.65;30.02;;;;;;;;;;10249716;28;20077;-65
2021/12/04 16:00:30;;;;;;;40.70;31.08;;;;;;;;;;10260262;28;20466;-64
2021/12/04 16:05:31;;;;;;;28.08;19.83;;;;;;;;;;10253715;28;20081;-65
2021/12/04 16:10:31;;;;;;;33.42;21.58;;;;;;;;;;10247830;28;20079;-65
2021/12/04 16:15:30;;;;;;;32.85;24.80;;;;;;;;;;10250417;28;20108;-65
2021/12/04 16:20:31;;;;;;;42.58;26.83;;;;;;;;;;10247654;28;20497;-65
2021/12/04 16:25:35;;;;;;;23.63;18.45;;;;;;;;;;10246638;28;20077;-66
2021/12/04 16:30:50;;;;;;;31.88;21.10;;;;;;;;;;10249073;28;20065;-67
2021/12/04 16:35:56;;;;;;;28.88;21.25;;;;;;;;;;10260023;28;20065;-66
2021/12/04 16:40:55;;;;;;;41.05;31.25;;;;;;;;;;10266576;28;20072;-66
2021/12/04 16:45:56;;;;;;;39.90;28.27;;;;;;;;;;10245135;28;20076;-65
2021/12/04 16:56:25;;;;;;;47.65;35.22;;;;;;;;;;10265414;28;20510;-66
2021/12/04 17:01:25;;;;;;;48.72;35.33;;;;;;;;;;10248560;28;20080;-66
2021/12/04 17:06:24;;;;;;;109.00;62.03;;;;;;;;;;10243557;28;20084;-66
2021/12/04 17:11:22;;;;;;;138.00;71.55;;;;;;;;;;10243369;28;20065;-66
2021/12/04 17:16:26;;;;;;;79.60;46.38;;;;;;;;;;10247527;28;20080;-66
2021/12/04 17:21:26;;;;;;;38.45;25.40;;;;;;;;;;10242490;28;20463;-66
2021/12/04 17:26:25;;;;;;;48.53;29.88;;;;;;;;;;10252322;28;20521;-66
2021/12/04 17:31:24;;;;;;;24.15;18.90;;;;;;;;;;10260078;28;20513;-66
2021/12/04 17:36:23;;;;;;;44.42;34.78;;;;;;;;;;10244200;28;20145;-66
2021/12/04 17:41:24;;;;;;;33.00;22.13;;;;;;;;;;10245586;28;20065;-66
2021/12/04 17:46:23;;;;;;;23.65;18.80;;;;;;;;;;10245867;28;20083;-66
2021/12/04 17:51:23;;;;;;;25.40;20.25;;;;;;;;;;10232581;28;20491;-65
2021/12/04 17:56:23;;;;;;;27.15;19.23;;;;;;;;;;10231182;28;20084;-66
2021/12/04 18:01:23;;;;;;;28.17;21.45;;;;;;;;;;10254931;28;20501;-66
2021/12/04 18:06:23;;;;;;;24.83;20.15;;;;;;;;;;10270084;28;20524;-65
2021/12/04 18:11:25;;;;;;;32.35;23.65;;;;;;;;;;10237686;28;20065;-65
2021/12/04 18:16:27;;;;;;;40.58;27.75;;;;;;;;;;10231340;28;20061;-65
2021/12/04 18:21:26;;;;;;;35.67;27.90;;;;;;;;;;10231333;28;20077;-65
2021/12/04 18:26:26;;;;;;;33.72;25.50;;;;;;;;;;10244749;28;20079;-65
2021/12/04 18:31:24;;;;;;;34.58;24.88;;;;;;;;;;10241743;28;20068;-65
2021/12/04 18:36:23;;;;;;;33.30;24.75;;;;;;;;;;10243775;28;20077;-65
2021/12/04 18:41:21;;;;;;;47.13;27.45;;;;;;;;;;10241753;28;20061;-65
2021/12/04 18:46:24;;;;;;;41.05;27.08;;;;;;;;;;10243379;28;20080;-65
2021/12/04 18:51:23;;;;;;;39.72;26.20;;;;;;;;;;10246352;28;20076;-65
2021/12/04 18:56:22;;;;;;;39.10;28.30;;;;;;;;;;10241602;28;20080;-65
2021/12/04 19:01:22;;;;;;;40.65;27.65;;;;;;;;;;10235733;28;20077;-65
2021/12/04 19:06:22;;;;;;;30.77;22.60;;;;;;;;;;10237515;28;20461;-65
2021/12/04 19:11:24;;;;;;;29.95;21.15;;;;;;;;;;10237765;28;20069;-65
2021/12/04 19:16:24;;;;;;;33.03;23.63;;;;;;;;;;10272312;28;20045;-65
2021/12/04 19:21:25;;;;;;;38.22;27.00;;;;;;;;;;10252257;28;20073;-65
2021/12/04 19:26:24;;;;;;;46.85;32.58;;;;;;;;;;10246698;28;20069;-64
2021/12/04 19:31:25;;;;;;;35.33;24.33;;;;;;;;;;10245923;28;20087;-66
2021/12/04 19:52:15;;;;;;;30.73;22.15;;;;;;;;;;10247572;28;20467;-65
2021/12/04 19:57:18;;;;;;;28.15;21.42;;;;;;;;;;10249585;28;20478;-65
2021/12/04 20:02:34;;;;;;;32.42;24.10;;;;;;;;;;10248582;28;20091;-66
2021/12/04 20:07:43;;;;;;;256.80;146.75;;;;;;;;;;10247946;28;20532;-66
2021/12/04 20:18:00;;;;;;;43.47;30.38;;;;;;;;;;10244485;28;20079;-64
2021/12/04 20:22:58;;;;;;;35.92;28.40;;;;;;;;;;10267594;28;20076;-65
2021/12/04 20:28:01;;;;;;;27.27;21.38;;;;;;;;;;10269248;28;20080;-65
2021/12/04 20:33:09;;;;;;;28.67;22.90;;;;;;;;;;10255462;28;20473;-64
2021/12/04 20:38:57;;;;;;;22.92;18.88;;;;;;;;;;10248553;28;20081;-65
2021/12/04 21:53:00;;;;;;;277.90;136.05;;;;;;;;;;10233474;28;20080;-66
2021/12/04 21:58:38;;;;;;;36.17;21.90;;;;;;;;;;10238542;28;20081;-66
2021/12/04 22:09:09;;;;;;;14.73;12.18;;;;;;;;;;10271277;28;20473;-65
2021/12/04 22:14:18;;;;;;;19.38;13.95;;;;;;;;;;10271664;28;20421;-65
2021/12/04 22:56:39;;;;;;;31.90;19.40;;;;;;;;;;10248260;28;20069;-65
2021/12/04 23:01:41;;;;;;;23.88;15.48;;;;;;;;;;10248534;28;20072;-65
2021/12/04 23:12:17;;;;;;;44.13;26.25;;;;;;;;;;10185039;28;20567;-65
2021/12/04 23:17:28;;;;;;;44.83;27.98;;;;;;;;;;10249883;28;20088;-64
2021/12/04 23:33:30;;;;;;;13.05;10.20;;;;;;;;;;10248109;28;20076;-65
2021/12/04 23:38:58;;;;;;;13.45;10.85;;;;;;;;;;10250558;28;20060;-65
2021/12/04 23:55:05;;;;;;;14.18;11.18;;;;;;;;;;10227366;28;20088;-65
